createdAt,value
2022-10-15T00:01:49.742Z,22.60
2022-10-15T00:04:18.749Z,22.10
2022-10-15T00:06:47.401Z,22.90
2022-10-15T00:09:16.019Z,27.95
2022-10-15T00:11:44.484Z,21.92
2022-10-15T00:14:12.986Z,25.38
2022-10-15T00:16:42.873Z,22.13
2022-10-15T00:19:11.726Z,22.00
2022-10-15T00:21:40.933Z,23.73
2022-10-15T00:24:09.782Z,27.17
2022-10-15T00:26:38.309Z,20.88
2022-10-15T00:29:06.868Z,26.75
2022-10-15T00:31:35.658Z,26.65
2022-10-15T00:34:05.618Z,26.50
2022-10-15T00:36:36.875Z,24.40
2022-10-15T00:39:07.392Z,23.40
2022-10-15T00:41:38.237Z,24.15
2022-10-15T00:44:40.102Z,21.40
2022-10-15T00:47:15.857Z,21.48
2022-10-15T00:49:50.271Z,19.65
2022-10-15T00:52:22.652Z,21.67
2022-10-15T00:54:56.890Z,19.58
2022-10-15T00:57:26.390Z,20.20
2022-10-15T01:00:00.026Z,21.08
2022-10-15T01:02:28.460Z,22.00
2022-10-15T01:04:58.356Z,19.25
2022-10-15T01:07:26.925Z,22.45
2022-10-15T01:09:55.504Z,25.08
2022-10-15T01:12:35.169Z,23.90
2022-10-15T01:15:11.124Z,25.38
2022-10-15T01:17:47.190Z,25.15
2022-10-15T01:20:48.998Z,26.60
2022-10-15T01:23:55.001Z,20.90
2022-10-15T01:27:09.912Z,22.95
2022-10-15T01:30:20.085Z,29.60
2022-10-15T01:33:05.414Z,29.63
2022-10-15T01:35:46.270Z,26.55
2022-10-15T01:38:27.993Z,22.50
2022-10-15T01:40:59.910Z,27.45
2022-10-15T01:43:37.018Z,21.20
2022-10-15T01:46:36.147Z,21.52
2022-10-15T01:49:10.029Z,23.38
2022-10-15T01:51:41.543Z,17.30
2022-10-15T01:54:15.638Z,20.88
2022-10-15T01:56:49.807Z,19.17
2022-10-15T01:59:25.238Z,24.30
2022-10-15T02:02:01.144Z,26.88
2022-10-15T02:04:56.982Z,19.40
2022-10-15T02:07:36.132Z,22.83
2022-10-15T02:10:15.057Z,21.70
2022-10-15T02:12:52.762Z,24.65
2022-10-15T02:15:29.584Z,22.65
2022-10-15T02:18:06.563Z,20.30
2022-10-15T02:20:44.648Z,18.08
2022-10-15T02:23:20.359Z,25.02
2022-10-15T02:25:52.390Z,22.05
2022-10-15T02:28:23.236Z,18.50
2022-10-15T02:31:20.241Z,20.90
2022-10-15T02:33:51.806Z,22.25
2022-10-15T02:36:22.333Z,23.42
2022-10-15T02:38:53.535Z,24.00
2022-10-15T02:41:22.760Z,23.25
2022-10-15T02:43:51.947Z,20.38
2022-10-15T02:46:21.370Z,23.17
2022-10-15T02:48:50.270Z,23.33
2022-10-15T02:51:21.434Z,26.73
2022-10-15T02:53:50.109Z,21.88
2022-10-15T02:56:20.643Z,21.05
2022-10-15T02:58:49.715Z,23.23
2022-10-15T03:01:20.416Z,25.52
2022-10-15T03:03:50.035Z,26.60
2022-10-15T03:06:19.328Z,22.92
2022-10-15T03:08:51.232Z,20.58
2022-10-15T03:11:19.643Z,24.58
2022-10-15T03:13:48.399Z,25.08
2022-10-15T03:16:16.883Z,24.42
2022-10-15T03:18:47.807Z,26.20
2022-10-15T03:21:17.854Z,24.77
2022-10-15T03:23:46.757Z,28.58
2022-10-15T03:26:21.890Z,26.77
2022-10-15T03:28:51.934Z,25.30
2022-10-15T03:31:34.002Z,28.48
2022-10-15T03:34:05.220Z,27.75
2022-10-15T03:36:34.288Z,28.35
2022-10-15T03:39:06.335Z,27.20
2022-10-15T03:41:36.960Z,28.70
2022-10-15T03:44:09.122Z,33.10
2022-10-15T03:46:42.340Z,35.80
2022-10-15T03:49:11.945Z,31.80
2022-10-15T03:51:41.250Z,32.65
2022-10-15T03:54:13.425Z,34.25
2022-10-15T03:56:51.059Z,38.05
2022-10-15T03:59:26.733Z,33.70
2022-10-15T04:02:01.146Z,30.67
2022-10-15T04:04:30.545Z,32.75
2022-10-15T04:06:59.475Z,33.05
2022-10-15T04:09:28.261Z,31.33
2022-10-15T04:12:19.018Z,33.42
2022-10-15T04:14:48.225Z,28.80
2022-10-15T04:17:17.843Z,31.38
2022-10-15T04:19:47.799Z,32.45
2022-10-15T04:22:17.855Z,35.83
2022-10-15T04:24:51.323Z,32.67
2022-10-15T04:27:29.982Z,32.38
2022-10-15T04:30:12.899Z,34.92
2022-10-15T04:32:46.734Z,34.78
2022-10-15T04:35:16.400Z,33.10
2022-10-15T04:37:54.427Z,35.33
2022-10-15T04:40:22.960Z,32.00
2022-10-15T04:42:53.531Z,35.20
2022-10-15T04:47:58.294Z,37.50
2022-10-15T04:50:27.552Z,36.13
2022-10-15T04:53:32.085Z,35.17
2022-10-15T04:56:02.409Z,34.97
2022-10-15T04:58:33.614Z,34.75
2022-10-15T05:01:03.365Z,40.33
2022-10-15T05:03:38.621Z,33.45
2022-10-15T05:06:11.912Z,39.65
2022-10-15T05:08:43.481Z,40.67
2022-10-15T05:11:23.175Z,36.65
2022-10-15T05:13:56.478Z,39.90
2022-10-15T05:16:28.475Z,40.30
2022-10-15T05:19:00.576Z,35.83
2022-10-15T05:21:32.804Z,38.97
2022-10-15T05:24:06.096Z,38.92
2022-10-15T05:26:55.400Z,40.35
2022-10-15T05:29:26.847Z,37.40
2022-10-15T05:31:55.973Z,36.97
2022-10-15T05:34:30.528Z,38.85
2022-10-15T05:37:06.626Z,37.03
2022-10-15T05:39:35.258Z,42.33
2022-10-15T05:42:03.656Z,36.83
2022-10-15T05:44:48.449Z,34.30
2022-10-15T05:47:17.315Z,39.00
2022-10-15T05:49:49.554Z,33.70
2022-10-15T05:52:26.276Z,36.08
2022-10-15T05:55:14.346Z,33.10
2022-10-15T05:57:43.144Z,36.47
2022-10-15T06:00:15.116Z,30.55
2022-10-15T06:02:43.756Z,31.73
2022-10-15T06:05:13.167Z,30.05
2022-10-15T06:07:42.008Z,33.00
2022-10-15T06:10:11.313Z,24.25
2022-10-15T06:12:39.766Z,29.50
2022-10-15T06:15:09.343Z,21.77
2022-10-15T06:17:40.283Z,26.35
2022-10-15T06:20:09.532Z,23.92
2022-10-15T06:22:38.771Z,22.30
2022-10-15T06:25:09.385Z,20.92
2022-10-15T06:27:38.037Z,16.55
2022-10-15T06:30:07.839Z,16.98
2022-10-15T06:32:36.593Z,16.35
2022-10-15T06:35:07.567Z,15.18
2022-10-15T06:37:36.428Z,18.30
2022-10-15T06:40:05.551Z,14.30
2022-10-15T06:42:35.410Z,13.80
2022-10-15T06:45:04.316Z,16.58
2022-10-15T06:47:33.404Z,14.38
2022-10-15T06:50:02.378Z,11.52
2022-10-15T06:52:33.480Z,13.05
2022-10-15T06:55:02.012Z,13.18
2022-10-15T06:57:30.853Z,11.40
2022-10-15T06:59:59.704Z,12.57
2022-10-15T07:02:28.009Z,13.38
2022-10-15T07:04:57.706Z,12.60
2022-10-15T07:07:26.707Z,9.60
2022-10-15T07:09:56.875Z,12.18
2022-10-15T07:12:25.668Z,10.45
2022-10-15T07:14:54.394Z,7.63
2022-10-15T07:17:26.381Z,9.70
2022-10-15T07:19:57.307Z,9.57
2022-10-15T07:22:43.807Z,8.57
2022-10-15T07:25:20.328Z,11.95
2022-10-15T07:27:51.247Z,8.50
2022-10-15T07:30:20.633Z,8.05
2022-10-15T07:32:50.730Z,8.15
2022-10-15T07:35:22.247Z,8.07
2022-10-15T07:38:02.640Z,7.05
2022-10-15T07:40:39.818Z,6.68
2022-10-15T07:43:11.490Z,6.00
2022-10-15T07:45:41.981Z,8.10
2022-10-15T07:48:10.568Z,7.10
2022-10-15T07:50:42.305Z,7.03
2022-10-15T07:53:18.043Z,8.95
2022-10-15T07:55:54.872Z,20.75
2022-10-15T07:58:23.888Z,6.22
2022-10-15T08:00:57.790Z,7.68
2022-10-15T08:03:35.527Z,7.45
2022-10-15T08:06:23.240Z,6.45
2022-10-15T08:08:54.587Z,5.63
2022-10-15T08:11:58.158Z,6.55
2022-10-15T08:14:29.648Z,5.60
2022-10-15T08:17:00.685Z,5.55
2022-10-15T08:19:33.701Z,5.65
2022-10-15T08:28:05.690Z,5.65
2022-10-15T08:30:46.504Z,6.53
2022-10-15T08:33:47.185Z,7.13
2022-10-15T08:36:16.596Z,4.85
2022-10-15T08:39:13.469Z,5.47
2022-10-15T08:41:50.499Z,9.63
2022-10-15T08:44:59.196Z,5.47
2022-10-15T08:47:39.993Z,5.85
2022-10-15T08:50:45.297Z,5.53
2022-10-15T08:53:30.318Z,5.85
2022-10-15T08:56:48.373Z,7.18
2022-10-15T08:59:29.846Z,5.93
2022-10-15T09:02:16.364Z,7.25
2022-10-15T09:05:00.302Z,6.68
2022-10-15T09:10:59.117Z,6.68
2022-10-15T09:13:44.284Z,6.82
2022-10-15T09:16:16.988Z,6.07
2022-10-15T09:19:02.364Z,5.18
2022-10-15T09:21:33.206Z,5.45
2022-10-15T09:24:07.375Z,4.82
2022-10-15T09:26:56.167Z,5.20
2022-10-15T09:29:39.511Z,7.13
2022-10-15T09:32:42.138Z,5.50
2022-10-15T09:38:38.186Z,6.82
2022-10-15T09:41:18.390Z,7.13
2022-10-15T09:43:51.398Z,7.20
2022-10-15T09:46:25.306Z,4.60
2022-10-15T09:49:04.719Z,5.53
2022-10-15T09:51:39.439Z,5.07
2022-10-15T09:54:19.030Z,5.25
2022-10-15T09:57:00.211Z,7.10
2022-10-15T09:59:34.170Z,5.15
2022-10-15T10:02:21.234Z,4.43
2022-10-15T10:04:59.550Z,3.80
2022-10-15T10:07:35.214Z,3.80
2022-10-15T10:10:31.479Z,3.42
2022-10-15T10:13:00.301Z,8.25
2022-10-15T10:15:35.447Z,3.97
2022-10-15T10:18:08.068Z,4.22
2022-10-15T10:20:54.910Z,4.05
2022-10-15T10:23:33.745Z,3.60
2022-10-15T10:26:03.787Z,4.18
2022-10-15T10:28:39.332Z,4.70
2022-10-15T10:31:12.789Z,5.00
2022-10-15T10:33:47.862Z,3.53
2022-10-15T10:36:30.836Z,3.50
2022-10-15T10:39:40.405Z,3.17
2022-10-15T10:42:24.470Z,3.20
2022-10-15T10:45:01.281Z,6.38
2022-10-15T10:47:40.735Z,3.30
2022-10-15T10:50:29.282Z,3.72
2022-10-15T10:53:00.729Z,3.65
2022-10-15T10:55:43.334Z,4.68
2022-10-15T10:58:22.155Z,3.92
2022-10-15T11:00:55.692Z,3.45
2022-10-15T11:03:32.863Z,4.05
2022-10-15T11:06:17.711Z,3.97
2022-10-15T11:08:56.984Z,3.53
2022-10-15T11:11:39.442Z,4.55
2022-10-15T11:14:20.031Z,4.95
2022-10-15T11:17:02.152Z,3.35
2022-10-15T11:22:49.824Z,4.32
2022-10-15T11:25:30.712Z,4.55
2022-10-15T11:28:14.889Z,3.25
2022-10-15T11:30:52.112Z,3.88
2022-10-15T11:33:41.591Z,3.63
2022-10-15T11:36:33.521Z,4.32
2022-10-15T11:39:19.348Z,4.68
2022-10-15T11:41:55.692Z,3.72
2022-10-15T11:44:37.193Z,4.65
2022-10-15T11:47:32.677Z,4.97
2022-10-15T11:50:15.084Z,6.05
2022-10-15T11:53:11.081Z,4.25
2022-10-15T11:55:43.517Z,4.20
2022-10-15T11:58:18.177Z,5.38
2022-10-15T12:00:53.217Z,7.20
2022-10-15T12:03:26.183Z,4.60
2022-10-15T12:05:58.671Z,5.82
2022-10-15T12:08:32.447Z,6.57
2022-10-15T12:11:15.681Z,4.25
2022-10-15T12:13:52.046Z,7.72
2022-10-15T12:16:30.252Z,4.95
2022-10-15T12:19:09.018Z,5.65
2022-10-15T12:21:40.845Z,4.85
2022-10-15T12:24:50.396Z,4.85
2022-10-15T12:27:37.069Z,5.43
2022-10-15T12:30:24.035Z,6.15
2022-10-15T12:32:55.647Z,5.65
2022-10-15T12:35:37.088Z,6.80
2022-10-15T12:38:20.391Z,5.53
2022-10-15T12:40:57.720Z,4.97
2022-10-15T12:43:28.183Z,6.45
2022-10-15T12:45:59.318Z,6.75
2022-10-15T12:48:48.127Z,7.05
2022-10-15T12:51:41.553Z,9.77
2022-10-15T12:54:36.983Z,7.07
2022-10-15T12:57:58.908Z,10.68
2022-10-15T13:00:39.584Z,37.70
2022-10-15T13:03:33.006Z,54.80
2022-10-15T13:06:35.620Z,9.90
2022-10-15T13:09:26.198Z,19.27
2022-10-15T13:11:57.156Z,12.90
2022-10-15T13:14:31.585Z,8.63
2022-10-15T13:17:04.124Z,9.23
2022-10-15T13:19:38.336Z,28.65
2022-10-15T13:22:20.980Z,10.40
2022-10-15T13:24:51.217Z,10.40
2022-10-15T13:27:24.725Z,9.63
2022-10-15T13:29:58.991Z,12.63
2022-10-15T13:32:30.582Z,16.92
2022-10-15T13:35:00.654Z,17.85
2022-10-15T13:37:33.484Z,10.52
2022-10-15T13:40:07.916Z,10.70
2022-10-15T13:42:37.453Z,10.52
2022-10-15T13:45:17.726Z,9.60
2022-10-15T13:47:50.282Z,9.75
2022-10-15T13:50:21.941Z,9.10
2022-10-15T13:52:54.027Z,12.20
2022-10-15T13:55:26.722Z,12.38
2022-10-15T13:58:01.295Z,12.18
2022-10-15T14:00:33.009Z,13.02
2022-10-15T14:03:08.936Z,11.75
2022-10-15T14:05:37.922Z,13.93
2022-10-15T14:08:07.099Z,16.33
2022-10-15T14:10:38.093Z,13.05
2022-10-15T14:13:06.678Z,13.48
2022-10-15T14:15:48.922Z,14.13
2022-10-15T14:18:27.827Z,13.35
2022-10-15T14:20:56.841Z,15.88
2022-10-15T14:23:26.987Z,13.95
2022-10-15T14:26:01.048Z,14.48
2022-10-15T14:28:32.465Z,13.88
2022-10-15T14:31:31.274Z,15.88
2022-10-15T14:34:00.177Z,15.23
2022-10-15T14:36:32.205Z,16.27
2022-10-15T14:39:26.284Z,14.57
2022-10-15T14:42:02.338Z,12.98
2022-10-15T14:44:47.042Z,14.70
2022-10-15T14:47:24.251Z,20.35
2022-10-15T14:49:56.567Z,18.05
2022-10-15T14:52:25.597Z,23.48
2022-10-15T14:55:03.076Z,23.52
2022-10-15T14:57:38.099Z,19.27
2022-10-15T15:00:16.163Z,17.45
2022-10-15T15:02:44.995Z,17.33
2022-10-15T15:05:22.912Z,15.27
2022-10-15T15:07:52.111Z,15.95
2022-10-15T15:10:21.396Z,16.77
2022-10-15T15:12:54.862Z,15.68
2022-10-15T15:15:26.084Z,15.82
2022-10-15T15:17:55.068Z,12.18
2022-10-15T15:20:26.214Z,13.02
2022-10-15T15:22:55.958Z,13.98
2022-10-15T15:25:29.764Z,13.10
2022-10-15T15:28:00.350Z,13.50
2022-10-15T15:30:31.411Z,12.60
2022-10-15T15:33:01.158Z,14.15
2022-10-15T15:35:37.217Z,14.35
2022-10-15T15:38:08.194Z,15.60
2022-10-15T15:40:37.538Z,12.93
2022-10-15T15:43:07.668Z,14.75
2022-10-15T15:45:36.407Z,14.07
2022-10-15T15:48:05.452Z,16.02
2022-10-15T15:50:35.375Z,18.55
2022-10-15T15:53:04.739Z,14.73
2022-10-15T15:55:33.197Z,18.85
2022-10-15T15:58:01.998Z,18.20
2022-10-15T16:00:31.683Z,18.25
2022-10-15T16:03:00.547Z,16.60
2022-10-15T16:05:29.123Z,16.45
2022-10-15T16:07:58.582Z,20.02
2022-10-15T16:10:27.794Z,19.63
2022-10-15T16:12:56.819Z,21.73
2022-10-15T16:15:25.977Z,19.60
2022-10-15T16:17:56.549Z,19.50
2022-10-15T16:20:25.462Z,19.02
2022-10-15T16:22:54.606Z,18.70
2022-10-15T16:25:26.408Z,22.58
2022-10-15T16:28:01.855Z,18.77
2022-10-15T16:30:30.516Z,22.15
2022-10-15T16:33:00.986Z,21.23
2022-10-15T16:35:29.907Z,21.50
2022-10-15T16:37:58.297Z,21.85
2022-10-15T16:40:26.903Z,24.70
2022-10-15T16:42:55.644Z,23.00
2022-10-15T16:45:25.042Z,20.70
2022-10-15T16:47:56.159Z,24.35
2022-10-15T16:50:25.965Z,20.95
2022-10-15T16:52:54.325Z,24.23
2022-10-15T16:55:22.369Z,26.35
2022-10-15T16:57:51.059Z,26.55
2022-10-15T17:00:19.573Z,24.73
2022-10-15T17:02:47.836Z,27.70
2022-10-15T17:05:15.881Z,26.00
2022-10-15T17:07:45.368Z,28.27
2022-10-15T17:10:14.817Z,25.58
2022-10-15T17:12:43.508Z,29.60
2022-10-15T17:15:12.360Z,28.95
2022-10-15T17:17:40.683Z,26.88
2022-10-15T17:20:10.310Z,28.25
2022-10-15T17:22:38.329Z,27.70
2022-10-15T17:25:08.426Z,30.90
2022-10-15T17:27:36.683Z,23.10
2022-10-15T17:30:05.530Z,25.25
2022-10-15T17:32:33.865Z,24.75
2022-10-15T17:35:03.940Z,27.98
2022-10-15T17:37:32.959Z,26.67
2022-10-15T17:40:01.164Z,28.08
2022-10-15T17:42:30.954Z,32.42
2022-10-15T17:44:59.210Z,39.55
2022-10-15T17:47:27.803Z,31.50
2022-10-15T17:49:56.267Z,28.00
2022-10-15T17:52:24.380Z,26.60
2022-10-15T17:54:52.984Z,30.67
2022-10-15T17:57:20.977Z,29.77
2022-10-15T17:59:51.238Z,30.67
2022-10-15T18:02:19.769Z,29.23
2022-10-15T18:04:49.560Z,28.88
2022-10-15T18:07:19.913Z,27.98
2022-10-15T18:09:47.878Z,30.65
2022-10-15T18:12:16.142Z,27.70
2022-10-15T18:14:45.033Z,28.25
2022-10-15T18:17:15.658Z,27.13
2022-10-15T18:19:44.206Z,37.85
2022-10-15T18:22:12.910Z,31.77
2022-10-15T18:24:41.139Z,35.28
2022-10-15T18:27:09.336Z,37.85
2022-10-15T18:29:37.974Z,31.85
2022-10-15T18:32:07.594Z,34.35
2022-10-15T18:34:37.571Z,34.47
2022-10-15T18:37:06.026Z,31.92
2022-10-15T18:39:34.364Z,30.25
2022-10-15T18:42:03.023Z,32.45
2022-10-15T18:44:33.387Z,28.27
2022-10-15T18:47:01.813Z,31.50
2022-10-15T18:49:30.759Z,30.15
2022-10-15T18:52:06.485Z,30.65
2022-10-15T18:54:44.414Z,27.20
2022-10-15T18:57:12.611Z,30.90
2022-10-15T18:59:41.004Z,32.97
2022-10-15T19:02:10.607Z,31.58
2022-10-15T19:04:38.700Z,36.90
2022-10-15T19:07:08.480Z,30.05
2022-10-15T19:09:36.825Z,35.95
2022-10-15T19:12:05.809Z,41.55
2022-10-15T19:14:34.066Z,39.63
2022-10-15T19:17:03.289Z,31.70
2022-10-15T19:19:31.587Z,35.00
2022-10-15T19:22:00.690Z,35.10
2022-10-15T19:24:30.368Z,29.27
2022-10-15T19:26:58.667Z,31.15
2022-10-15T19:29:30.292Z,27.17
2022-10-15T19:32:04.008Z,28.45
2022-10-15T19:34:34.543Z,28.90
2022-10-15T19:37:04.297Z,30.25
2022-10-15T19:39:39.674Z,28.65
2022-10-15T19:42:08.010Z,26.35
2022-10-15T19:44:36.452Z,25.67
2022-10-15T19:47:04.561Z,27.15
2022-10-15T19:49:34.030Z,30.48
2022-10-15T19:52:03.272Z,29.73
2022-10-15T19:54:32.598Z,29.73
2022-10-15T19:57:02.862Z,27.75
2022-10-15T19:59:31.554Z,27.42
2022-10-15T20:02:00.089Z,28.55
2022-10-15T20:04:28.841Z,25.65
2022-10-15T20:06:57.537Z,23.98
2022-10-15T20:09:26.101Z,27.58
2022-10-15T20:11:54.604Z,23.77
2022-10-15T20:14:24.327Z,26.95
2022-10-15T20:16:53.190Z,27.20
2022-10-15T20:19:22.082Z,25.05
2022-10-15T20:21:51.181Z,25.05
2022-10-15T20:24:19.747Z,24.92
2022-10-15T20:26:48.147Z,23.35
2022-10-15T20:29:17.499Z,24.42
2022-10-15T20:31:47.344Z,25.50
2022-10-15T20:34:16.157Z,22.80
2022-10-15T20:36:45.505Z,23.65
2022-10-15T20:39:13.977Z,22.45
2022-10-15T20:41:42.222Z,21.33
2022-10-15T20:44:12.196Z,22.77
2022-10-15T20:46:45.071Z,25.83
2022-10-15T20:49:18.723Z,23.02
2022-10-15T20:51:46.956Z,22.52
2022-10-15T20:54:16.674Z,22.75
2022-10-15T20:56:45.100Z,22.73
2022-10-15T20:59:13.599Z,20.17
2022-10-15T21:01:42.488Z,23.45
2022-10-15T21:04:10.892Z,22.55
2022-10-15T21:06:41.194Z,23.90
2022-10-15T21:09:09.588Z,24.02
2022-10-15T21:11:41.537Z,26.50
2022-10-15T21:14:09.870Z,25.13
2022-10-15T21:16:38.157Z,27.80
2022-10-15T21:19:06.713Z,24.35
2022-10-15T21:21:35.034Z,28.65
2022-10-15T21:24:05.309Z,28.38
2022-10-15T21:26:34.263Z,26.10
2022-10-15T21:29:02.685Z,24.90
2022-10-15T21:31:31.148Z,24.45
2022-10-15T21:33:59.517Z,28.40
2022-10-15T21:36:29.502Z,28.80
2022-10-15T21:39:00.921Z,27.92
2022-10-15T21:41:33.316Z,26.77
2022-10-15T21:44:02.633Z,23.92
2022-10-15T21:46:31.579Z,26.33
2022-10-15T21:49:00.784Z,28.85
2022-10-15T21:51:31.251Z,25.75
2022-10-15T21:54:01.359Z,27.95
2022-10-15T21:56:31.624Z,24.75
2022-10-15T21:59:00.912Z,25.63
2022-10-15T22:01:31.658Z,23.38
2022-10-15T22:04:01.769Z,27.30
2022-10-15T22:06:30.167Z,25.45
2022-10-15T22:08:59.415Z,21.17
2022-10-15T22:11:31.285Z,21.98
2022-10-15T22:14:01.738Z,23.92
2022-10-15T22:16:29.946Z,24.33
2022-10-15T22:18:58.731Z,23.33
2022-10-15T22:21:29.453Z,23.42
2022-10-15T22:23:59.575Z,22.48
2022-10-15T22:26:32.734Z,21.48
2022-10-15T22:29:02.846Z,27.80
2022-10-15T22:31:31.847Z,21.13
2022-10-15T22:34:00.792Z,19.45
2022-10-15T22:36:31.376Z,20.70
2022-10-15T22:39:01.880Z,20.27
2022-10-15T22:41:34.216Z,24.75
2022-10-15T22:44:03.379Z,17.63
2022-10-15T22:46:34.402Z,17.33
2022-10-15T22:49:02.888Z,18.65
2022-10-15T22:51:31.463Z,18.00
2022-10-15T22:54:00.762Z,16.90
2022-10-15T22:56:31.588Z,15.05
2022-10-15T22:59:00.693Z,15.93
2022-10-15T23:01:31.011Z,20.15
2022-10-15T23:04:01.684Z,16.05
2022-10-15T23:06:30.488Z,21.30
2022-10-15T23:08:59.779Z,16.17
2022-10-15T23:11:30.422Z,14.00
2022-10-15T23:14:02.191Z,15.35
2022-10-15T23:16:32.631Z,14.70
2022-10-15T23:19:02.567Z,14.57
2022-10-15T23:21:33.692Z,15.52
2022-10-15T23:24:02.650Z,16.88
2022-10-15T23:26:31.204Z,19.75
2022-10-15T23:29:03.426Z,18.58
2022-10-15T23:31:34.393Z,21.27
2022-10-15T23:34:06.019Z,21.38
2022-10-15T23:36:35.245Z,23.75
2022-10-15T23:39:06.137Z,18.40
2022-10-15T23:41:34.720Z,21.48
2022-10-15T23:44:04.995Z,20.48
2022-10-15T23:46:33.159Z,22.63
2022-10-15T23:49:01.457Z,24.02
2022-10-15T23:51:31.410Z,23.92
2022-10-15T23:54:01.905Z,24.90
2022-10-15T23:56:31.301Z,22.45
2022-10-15T23:59:01.376Z,30.00
